sensor_id;sensor_type;location;lat;lon;timestamp;P1;durP1;ratioP1;P2;durP2;ratioP2
9836;SDS011;4957;51.412;6.724;2023-07-29T00:01:58;6.13;;;2.47;;
9836;SDS011;4957;51.412;6.724;2023-07-29T00:04:24;2.80;;;2.60;;
9836;SDS011;4957;51.412;6.724;2023-07-29T00:06:49;6.23;;;2.60;;
9836;SDS011;4957;51.412;6.724;2023-07-29T00:09:15;7.60;;;2.77;;
9836;SDS011;4957;51.412;6.724;2023-07-29T00:11:41;4.07;;;2.50;;
9836;SDS011;4957;51.412;6.724;2023-07-29T00:14:06;2.20;;;2.00;;
9836;SDS011;4957;51.412;6.724;2023-07-29T00:16:32;3.57;;;2.07;;
9836;SDS011;4957;51.412;6.724;2023-07-29T00:18:57;2.47;;;2.27;;
9836;SDS011;4957;51.412;6.724;2023-07-29T00:21:23;3.37;;;2.13;;
9836;SDS011;4957;51.412;6.724;2023-07-29T00:23:49;4.57;;;2.30;;
9836;SDS011;4957;51.412;6.724;2023-07-29T00:26:14;5.57;;;2.33;;
9836;SDS011;4957;51.412;6.724;2023-07-29T00:28:40;3.20;;;2.40;;
9836;SDS011;4957;51.412;6.724;2023-07-29T00:31:06;7.53;;;3.23;;
9836;SDS011;4957;51.412;6.724;2023-07-29T00:33:31;4.63;;;2.83;;
9836;SDS011;4957;51.412;6.724;2023-07-29T00:35:57;4.63;;;3.20;;
9836;SDS011;4957;51.412;6.724;2023-07-29T00:38:26;3.03;;;2.23;;
9836;SDS011;4957;51.412;6.724;2023-07-29T00:40:52;5.33;;;2.43;;
9836;SDS011;4957;51.412;6.724;2023-07-29T00:43:18;2.47;;;2.07;;
9836;SDS011;4957;51.412;6.724;2023-07-29T00:45:43;3.63;;;2.33;;
9836;SDS011;4957;51.412;6.724;2023-07-29T00:48:10;4.13;;;2.77;;
9836;SDS011;4957;51.412;6.724;2023-07-29T00:50:35;6.30;;;2.10;;
9836;SDS011;4957;51.412;6.724;2023-07-29T00:53:01;3.47;;;2.27;;
9836;SDS011;4957;51.412;6.724;2023-07-29T00:55:27;4.27;;;2.10;;
9836;SDS011;4957;51.412;6.724;2023-07-29T01:00:41;3.83;;;2.30;;
9836;SDS011;4957;51.412;6.724;2023-07-29T01:03:07;3.50;;;2.50;;
9836;SDS011;4957;51.412;6.724;2023-07-29T01:05:36;5.10;;;2.83;;
9836;SDS011;4957;51.412;6.724;2023-07-29T01:08:24;3.47;;;2.37;;
9836;SDS011;4957;51.412;6.724;2023-07-29T01:11:00;5.90;;;2.77;;
9836;SDS011;4957;51.412;6.724;2023-07-29T01:13:42;5.40;;;2.77;;
9836;SDS011;4957;51.412;6.724;2023-07-29T01:16:14;2.87;;;2.43;;
9836;SDS011;4957;51.412;6.724;2023-07-29T01:18:53;3.33;;;3.03;;
9836;SDS011;4957;51.412;6.724;2023-07-29T01:21:20;3.73;;;2.73;;
9836;SDS011;4957;51.412;6.724;2023-07-29T01:23:47;6.07;;;3.10;;
9836;SDS011;4957;51.412;6.724;2023-07-29T01:26:12;4.43;;;3.00;;
9836;SDS011;4957;51.412;6.724;2023-07-29T01:28:38;4.50;;;3.07;;
9836;SDS011;4957;51.412;6.724;2023-07-29T01:31:12;3.77;;;3.10;;
9836;SDS011;4957;51.412;6.724;2023-07-29T01:36:50;4.90;;;3.77;;
9836;SDS011;4957;51.412;6.724;2023-07-29T01:39:19;5.77;;;3.43;;
9836;SDS011;4957;51.412;6.724;2023-07-29T01:41:47;3.80;;;3.20;;
9836;SDS011;4957;51.412;6.724;2023-07-29T01:44:14;8.77;;;3.50;;
9836;SDS011;4957;51.412;6.724;2023-07-29T01:46:41;11.50;;;3.50;;
9836;SDS011;4957;51.412;6.724;2023-07-29T01:49:06;6.63;;;3.13;;
9836;SDS011;4957;51.412;6.724;2023-07-29T01:51:32;7.83;;;3.20;;
9836;SDS011;4957;51.412;6.724;2023-07-29T01:53:58;4.53;;;3.20;;
9836;SDS011;4957;51.412;6.724;2023-07-29T01:56:24;7.53;;;3.60;;
9836;SDS011;4957;51.412;6.724;2023-07-29T01:58:50;6.77;;;4.00;;
9836;SDS011;4957;51.412;6.724;2023-07-29T02:01:16;5.73;;;3.40;;
9836;SDS011;4957;51.412;6.724;2023-07-29T02:03:41;7.10;;;3.60;;
9836;SDS011;4957;51.412;6.724;2023-07-29T02:06:07;5.47;;;3.40;;
9836;SDS011;4957;51.412;6.724;2023-07-29T02:08:33;36.83;;;4.53;;
9836;SDS011;4957;51.412;6.724;2023-07-29T02:10:59;9.70;;;3.50;;
9836;SDS011;4957;51.412;6.724;2023-07-29T02:13:24;11.90;;;4.63;;
9836;SDS011;4957;51.412;6.724;2023-07-29T02:15:50;8.07;;;4.30;;
9836;SDS011;4957;51.412;6.724;2023-07-29T02:18:16;8.27;;;4.30;;
9836;SDS011;4957;51.412;6.724;2023-07-29T02:20:42;7.83;;;4.07;;
9836;SDS011;4957;51.412;6.724;2023-07-29T02:23:14;4.83;;;4.10;;
9836;SDS011;4957;51.412;6.724;2023-07-29T02:25:41;6.70;;;3.73;;
9836;SDS011;4957;51.412;6.724;2023-07-29T02:28:06;7.90;;;4.50;;
9836;SDS011;4957;51.412;6.724;2023-07-29T02:30:32;7.30;;;4.60;;
9836;SDS011;4957;51.412;6.724;2023-07-29T02:32:57;4.30;;;3.67;;
9836;SDS011;4957;51.412;6.724;2023-07-29T02:35:24;4.40;;;3.20;;
9836;SDS011;4957;51.412;6.724;2023-07-29T02:37:50;3.83;;;3.43;;
9836;SDS011;4957;51.412;6.724;2023-07-29T02:40:15;5.90;;;3.63;;
9836;SDS011;4957;51.412;6.724;2023-07-29T02:42:41;4.43;;;3.23;;
9836;SDS011;4957;51.412;6.724;2023-07-29T02:45:07;3.87;;;3.30;;
9836;SDS011;4957;51.412;6.724;2023-07-29T02:47:35;8.13;;;3.90;;
9836;SDS011;4957;51.412;6.724;2023-07-29T02:50:02;4.73;;;2.93;;
9836;SDS011;4957;51.412;6.724;2023-07-29T02:52:28;4.13;;;3.40;;
9836;SDS011;4957;51.412;6.724;2023-07-29T02:54:53;4.13;;;3.70;;
9836;SDS011;4957;51.412;6.724;2023-07-29T02:57:19;4.03;;;3.73;;
9836;SDS011;4957;51.412;6.724;2023-07-29T02:59:45;6.13;;;3.37;;
9836;SDS011;4957;51.412;6.724;2023-07-29T03:02:11;5.63;;;3.33;;
9836;SDS011;4957;51.412;6.724;2023-07-29T03:04:36;8.67;;;4.03;;
9836;SDS011;4957;51.412;6.724;2023-07-29T03:07:02;5.00;;;4.13;;
9836;SDS011;4957;51.412;6.724;2023-07-29T03:09:28;6.07;;;3.97;;
9836;SDS011;4957;51.412;6.724;2023-07-29T03:11:54;5.13;;;3.73;;
9836;SDS011;4957;51.412;6.724;2023-07-29T03:14:20;4.20;;;3.70;;
9836;SDS011;4957;51.412;6.724;2023-07-29T03:16:46;7.33;;;3.90;;
9836;SDS011;4957;51.412;6.724;2023-07-29T03:19:12;7.40;;;3.80;;
9836;SDS011;4957;51.412;6.724;2023-07-29T03:21:38;4.43;;;3.43;;
9836;SDS011;4957;51.412;6.724;2023-07-29T03:24:03;6.07;;;3.07;;
9836;SDS011;4957;51.412;6.724;2023-07-29T03:26:29;3.73;;;3.43;;
9836;SDS011;4957;51.412;6.724;2023-07-29T03:28:54;4.80;;;3.30;;
9836;SDS011;4957;51.412;6.724;2023-07-29T03:31:20;3.53;;;3.23;;
9836;SDS011;4957;51.412;6.724;2023-07-29T03:33:46;5.17;;;3.23;;
9836;SDS011;4957;51.412;6.724;2023-07-29T03:36:11;8.47;;;3.03;;
9836;SDS011;4957;51.412;6.724;2023-07-29T03:38:37;6.87;;;3.70;;
9836;SDS011;4957;51.412;6.724;2023-07-29T03:41:06;3.87;;;3.17;;
9836;SDS011;4957;51.412;6.724;2023-07-29T03:43:33;4.20;;;2.90;;
9836;SDS011;4957;51.412;6.724;2023-07-29T03:45:59;3.80;;;2.97;;
9836;SDS011;4957;51.412;6.724;2023-07-29T03:48:25;3.30;;;3.00;;
9836;SDS011;4957;51.412;6.724;2023-07-29T03:50:51;6.90;;;3.10;;
9836;SDS011;4957;51.412;6.724;2023-07-29T03:53:17;4.57;;;3.10;;
9836;SDS011;4957;51.412;6.724;2023-07-29T03:55:42;3.50;;;3.20;;
9836;SDS011;4957;51.412;6.724;2023-07-29T03:58:09;4.57;;;3.07;;
9836;SDS011;4957;51.412;6.724;2023-07-29T04:00:34;7.13;;;3.00;;
9836;SDS011;4957;51.412;6.724;2023-07-29T04:03:00;3.50;;;2.93;;
9836;SDS011;4957;51.412;6.724;2023-07-29T04:05:26;3.23;;;2.93;;
9836;SDS011;4957;51.412;6.724;2023-07-29T04:07:51;4.60;;;3.37;;
9836;SDS011;4957;51.412;6.724;2023-07-29T04:10:18;6.63;;;3.00;;
9836;SDS011;4957;51.412;6.724;2023-07-29T04:12:44;3.53;;;3.00;;
9836;SDS011;4957;51.412;6.724;2023-07-29T04:15:10;3.07;;;2.87;;
9836;SDS011;4957;51.412;6.724;2023-07-29T04:17:35;5.67;;;2.93;;
9836;SDS011;4957;51.412;6.724;2023-07-29T04:20:01;4.07;;;2.70;;
9836;SDS011;4957;51.412;6.724;2023-07-29T04:22:27;4.43;;;3.27;;
9836;SDS011;4957;51.412;6.724;2023-07-29T04:24:53;5.23;;;3.17;;
9836;SDS011;4957;51.412;6.724;2023-07-29T04:27:19;4.27;;;3.70;;
9836;SDS011;4957;51.412;6.724;2023-07-29T04:29:44;10.20;;;3.80;;
9836;SDS011;4957;51.412;6.724;2023-07-29T04:32:10;3.77;;;3.23;;
9836;SDS011;4957;51.412;6.724;2023-07-29T04:34:36;3.67;;;3.37;;
9836;SDS011;4957;51.412;6.724;2023-07-29T04:37:01;7.53;;;3.77;;
9836;SDS011;4957;51.412;6.724;2023-07-29T04:39:27;7.47;;;3.93;;
9836;SDS011;4957;51.412;6.724;2023-07-29T04:41:52;7.77;;;4.00;;
9836;SDS011;4957;51.412;6.724;2023-07-29T04:44:18;7.70;;;4.07;;
9836;SDS011;4957;51.412;6.724;2023-07-29T04:46:44;4.70;;;4.20;;
9836;SDS011;4957;51.412;6.724;2023-07-29T04:49:09;5.07;;;4.67;;
9836;SDS011;4957;51.412;6.724;2023-07-29T04:51:35;8.77;;;4.33;;
9836;SDS011;4957;51.412;6.724;2023-07-29T04:54:02;8.13;;;4.63;;
9836;SDS011;4957;51.412;6.724;2023-07-29T04:56:27;6.27;;;4.27;;
9836;SDS011;4957;51.412;6.724;2023-07-29T04:58:53;5.90;;;5.27;;
9836;SDS011;4957;51.412;6.724;2023-07-29T05:01:19;11.63;;;5.10;;
9836;SDS011;4957;51.412;6.724;2023-07-29T05:03:44;10.43;;;4.67;;
9836;SDS011;4957;51.412;6.724;2023-07-29T05:06:10;5.27;;;4.77;;
9836;SDS011;4957;51.412;6.724;2023-07-29T05:08:36;8.37;;;4.57;;
9836;SDS011;4957;51.412;6.724;2023-07-29T05:11:02;11.70;;;5.43;;
9836;SDS011;4957;51.412;6.724;2023-07-29T05:13:27;6.73;;;5.67;;
9836;SDS011;4957;51.412;6.724;2023-07-29T05:15:53;9.57;;;5.30;;
9836;SDS011;4957;51.412;6.724;2023-07-29T05:18:19;8.50;;;5.80;;
9836;SDS011;4957;51.412;6.724;2023-07-29T05:20:45;8.90;;;5.90;;
9836;SDS011;4957;51.412;6.724;2023-07-29T05:23:12;6.80;;;6.10;;
9836;SDS011;4957;51.412;6.724;2023-07-29T05:25:37;12.93;;;6.40;;
9836;SDS011;4957;51.412;6.724;2023-07-29T05:28:03;7.23;;;4.83;;
9836;SDS011;4957;51.412;6.724;2023-07-29T05:30:29;6.93;;;5.07;;
9836;SDS011;4957;51.412;6.724;2023-07-29T05:33:02;5.77;;;3.93;;
9836;SDS011;4957;51.412;6.724;2023-07-29T05:35:33;6.70;;;3.73;;
9836;SDS011;4957;51.412;6.724;2023-07-29T05:37:59;6.10;;;3.73;;
9836;SDS011;4957;51.412;6.724;2023-07-29T05:40:24;7.23;;;3.57;;
9836;SDS011;4957;51.412;6.724;2023-07-29T05:42:50;3.47;;;3.07;;
9836;SDS011;4957;51.412;6.724;2023-07-29T05:45:16;6.13;;;3.30;;
9836;SDS011;4957;51.412;6.724;2023-07-29T05:47:41;9.20;;;2.83;;
9836;SDS011;4957;51.412;6.724;2023-07-29T05:50:07;4.53;;;2.73;;
9836;SDS011;4957;51.412;6.724;2023-07-29T05:52:33;7.53;;;2.93;;
9836;SDS011;4957;51.412;6.724;2023-07-29T05:54:59;4.73;;;2.80;;
9836;SDS011;4957;51.412;6.724;2023-07-29T05:57:25;3.47;;;2.93;;
9836;SDS011;4957;51.412;6.724;2023-07-29T05:59:51;5.63;;;2.73;;
9836;SDS011;4957;51.412;6.724;2023-07-29T06:02:17;3.43;;;2.33;;
9836;SDS011;4957;51.412;6.724;2023-07-29T06:04:43;7.53;;;2.80;;
9836;SDS011;4957;51.412;6.724;2023-07-29T06:07:08;8.73;;;3.23;;
9836;SDS011;4957;51.412;6.724;2023-07-29T06:09:34;5.47;;;3.10;;
9836;SDS011;4957;51.412;6.724;2023-07-29T06:11:59;4.30;;;3.10;;
9836;SDS011;4957;51.412;6.724;2023-07-29T06:14:25;4.87;;;3.37;;
9836;SDS011;4957;51.412;6.724;2023-07-29T06:16:51;8.97;;;3.40;;
9836;SDS011;4957;51.412;6.724;2023-07-29T06:19:17;6.20;;;3.00;;
9836;SDS011;4957;51.412;6.724;2023-07-29T06:21:44;6.03;;;2.93;;
9836;SDS011;4957;51.412;6.724;2023-07-29T06:24:10;5.70;;;2.80;;
9836;SDS011;4957;51.412;6.724;2023-07-29T06:26:36;2.73;;;2.40;;
9836;SDS011;4957;51.412;6.724;2023-07-29T06:29:01;4.07;;;2.37;;
9836;SDS011;4957;51.412;6.724;2023-07-29T06:31:27;2.57;;;2.37;;
9836;SDS011;4957;51.412;6.724;2023-07-29T06:33:52;5.83;;;2.67;;
9836;SDS011;4957;51.412;6.724;2023-07-29T06:36:19;3.23;;;2.60;;
9836;SDS011;4957;51.412;6.724;2023-07-29T06:38:45;2.20;;;2.10;;
9836;SDS011;4957;51.412;6.724;2023-07-29T06:41:11;5.20;;;2.73;;
9836;SDS011;4957;51.412;6.724;2023-07-29T06:43:36;3.33;;;2.23;;
9836;SDS011;4957;51.412;6.724;2023-07-29T06:46:02;4.23;;;2.10;;
9836;SDS011;4957;51.412;6.724;2023-07-29T06:48:27;2.20;;;2.00;;
9836;SDS011;4957;51.412;6.724;2023-07-29T06:50:53;2.10;;;1.90;;
9836;SDS011;4957;51.412;6.724;2023-07-29T06:53:20;3.83;;;2.00;;
9836;SDS011;4957;51.412;6.724;2023-07-29T06:55:46;1.83;;;1.73;;
9836;SDS011;4957;51.412;6.724;2023-07-29T06:58:12;2.13;;;1.63;;
9836;SDS011;4957;51.412;6.724;2023-07-29T07:00:37;3.23;;;1.50;;
9836;SDS011;4957;51.412;6.724;2023-07-29T07:03:03;1.83;;;1.63;;
9836;SDS011;4957;51.412;6.724;2023-07-29T07:05:29;2.50;;;1.83;;
9836;SDS011;4957;51.412;6.724;2023-07-29T07:07:54;4.00;;;1.77;;
9836;SDS011;4957;51.412;6.724;2023-07-29T07:10:20;1.87;;;1.63;;
9836;SDS011;4957;51.412;6.724;2023-07-29T07:12:46;1.10;;;1.10;;
9836;SDS011;4957;51.412;6.724;2023-07-29T07:15:11;2.53;;;1.53;;
9836;SDS011;4957;51.412;6.724;2023-07-29T07:17:37;3.03;;;1.70;;
9836;SDS011;4957;51.412;6.724;2023-07-29T07:20:03;1.73;;;1.53;;
9836;SDS011;4957;51.412;6.724;2023-07-29T07:22:30;2.70;;;1.50;;
9836;SDS011;4957;51.412;6.724;2023-07-29T07:24:55;2.93;;;1.63;;
9836;SDS011;4957;51.412;6.724;2023-07-29T07:27:21;2.10;;;1.63;;
9836;SDS011;4957;51.412;6.724;2023-07-29T07:29:47;6.17;;;1.50;;
9836;SDS011;4957;51.412;6.724;2023-07-29T07:32:12;1.50;;;1.40;;
9836;SDS011;4957;51.412;6.724;2023-07-29T07:34:38;3.83;;;1.90;;
9836;SDS011;4957;51.412;6.724;2023-07-29T07:37:04;3.13;;;1.40;;
9836;SDS011;4957;51.412;6.724;2023-07-29T07:39:30;4.23;;;1.30;;
9836;SDS011;4957;51.412;6.724;2023-07-29T07:41:56;2.53;;;1.37;;
9836;SDS011;4957;51.412;6.724;2023-07-29T07:44:22;4.53;;;1.93;;
9836;SDS011;4957;51.412;6.724;2023-07-29T07:46:48;0.90;;;0.90;;
9836;SDS011;4957;51.412;6.724;2023-07-29T07:49:13;1.37;;;1.07;;
9836;SDS011;4957;51.412;6.724;2023-07-29T07:51:39;1.20;;;1.10;;
9836;SDS011;4957;51.412;6.724;2023-07-29T07:54:05;3.70;;;0.93;;
9836;SDS011;4957;51.412;6.724;2023-07-29T07:56:31;1.30;;;0.80;;
9836;SDS011;4957;51.412;6.724;2023-07-29T07:58:57;0.87;;;0.63;;
9836;SDS011;4957;51.412;6.724;2023-07-29T08:01:22;0.87;;;0.87;;
9836;SDS011;4957;51.412;6.724;2023-07-29T08:03:48;0.70;;;0.70;;
9836;SDS011;4957;51.412;6.724;2023-07-29T08:06:13;0.77;;;0.77;;
9836;SDS011;4957;51.412;6.724;2023-07-29T08:08:39;0.80;;;0.80;;
9836;SDS011;4957;51.412;6.724;2023-07-29T08:11:05;3.30;;;0.70;;
9836;SDS011;4957;51.412;6.724;2023-07-29T08:13:30;2.30;;;0.90;;
9836;SDS011;4957;51.412;6.724;2023-07-29T08:15:56;1.23;;;0.77;;
9836;SDS011;4957;51.412;6.724;2023-07-29T08:18:22;2.67;;;0.70;;
9836;SDS011;4957;51.412;6.724;2023-07-29T08:20:54;0.77;;;0.70;;
9836;SDS011;4957;51.412;6.724;2023-07-29T08:23:23;0.73;;;0.70;;
9836;SDS011;4957;51.412;6.724;2023-07-29T08:25:55;6.33;;;1.47;;
9836;SDS011;4957;51.412;6.724;2023-07-29T08:28:27;0.70;;;0.70;;
9836;SDS011;4957;51.412;6.724;2023-07-29T08:30:57;1.83;;;1.07;;
9836;SDS011;4957;51.412;6.724;2023-07-29T08:33:23;2.60;;;0.70;;
9836;SDS011;4957;51.412;6.724;2023-07-29T08:35:49;2.13;;;0.80;;
9836;SDS011;4957;51.412;6.724;2023-07-29T08:38:14;1.83;;;0.70;;
9836;SDS011;4957;51.412;6.724;2023-07-29T08:40:42;0.40;;;0.40;;
9836;SDS011;4957;51.412;6.724;2023-07-29T08:43:16;2.83;;;0.67;;
9836;SDS011;4957;51.412;6.724;2023-07-29T08:45:45;0.60;;;0.60;;
9836;SDS011;4957;51.412;6.724;2023-07-29T08:48:11;0.70;;;0.70;;
9836;SDS011;4957;51.412;6.724;2023-07-29T08:50:40;1.27;;;0.70;;
9836;SDS011;4957;51.412;6.724;2023-07-29T08:53:07;0.67;;;0.67;;
9836;SDS011;4957;51.412;6.724;2023-07-29T08:55:33;0.60;;;0.60;;
9836;SDS011;4957;51.412;6.724;2023-07-29T08:57:59;1.33;;;0.80;;
9836;SDS011;4957;51.412;6.724;2023-07-29T09:00:26;0.83;;;0.83;;
9836;SDS011;4957;51.412;6.724;2023-07-29T09:02:52;0.60;;;0.60;;
9836;SDS011;4957;51.412;6.724;2023-07-29T09:05:20;0.70;;;0.70;;
9836;SDS011;4957;51.412;6.724;2023-07-29T09:07:46;0.77;;;0.70;;
9836;SDS011;4957;51.412;6.724;2023-07-29T09:10:13;1.00;;;0.90;;
9836;SDS011;4957;51.412;6.724;2023-07-29T09:12:39;1.10;;;1.00;;
9836;SDS011;4957;51.412;6.724;2023-07-29T09:15:05;0.83;;;0.83;;
9836;SDS011;4957;51.412;6.724;2023-07-29T09:17:32;3.57;;;0.90;;
9836;SDS011;4957;51.412;6.724;2023-07-29T09:19:58;0.97;;;0.97;;
9836;SDS011;4957;51.412;6.724;2023-07-29T09:22:24;1.30;;;0.90;;
9836;SDS011;4957;51.412;6.724;2023-07-29T09:24:52;1.33;;;0.90;;
9836;SDS011;4957;51.412;6.724;2023-07-29T09:27:28;2.23;;;0.93;;
9836;SDS011;4957;51.412;6.724;2023-07-29T09:29:57;4.83;;;0.90;;
9836;SDS011;4957;51.412;6.724;2023-07-29T09:32:23;0.80;;;0.80;;
9836;SDS011;4957;51.412;6.724;2023-07-29T09:34:50;0.93;;;0.93;;
9836;SDS011;4957;51.412;6.724;2023-07-29T09:37:25;2.37;;;0.93;;
9836;SDS011;4957;51.412;6.724;2023-07-29T09:39:51;0.83;;;0.80;;
9836;SDS011;4957;51.412;6.724;2023-07-29T09:42:17;1.17;;;1.00;;
9836;SDS011;4957;51.412;6.724;2023-07-29T09:44:44;0.80;;;0.80;;
9836;SDS011;4957;51.412;6.724;2023-07-29T09:47:17;1.13;;;1.03;;
9836;SDS011;4957;51.412;6.724;2023-07-29T09:49:44;4.43;;;1.03;;
9836;SDS011;4957;51.412;6.724;2023-07-29T09:52:10;3.70;;;1.00;;
9836;SDS011;4957;51.412;6.724;2023-07-29T09:54:36;1.83;;;0.90;;
9836;SDS011;4957;51.412;6.724;2023-07-29T09:57:02;1.10;;;0.80;;
9836;SDS011;4957;51.412;6.724;2023-07-29T09:59:28;2.00;;;0.83;;
9836;SDS011;4957;51.412;6.724;2023-07-29T10:01:58;3.53;;;0.93;;
9836;SDS011;4957;51.412;6.724;2023-07-29T10:04:24;1.23;;;0.90;;
9836;SDS011;4957;51.412;6.724;2023-07-29T10:06:50;1.00;;;0.90;;
9836;SDS011;4957;51.412;6.724;2023-07-29T10:09:17;1.90;;;0.80;;
9836;SDS011;4957;51.412;6.724;2023-07-29T10:11:45;1.03;;;0.93;;
9836;SDS011;4957;51.412;6.724;2023-07-29T10:14:11;1.60;;;0.90;;
9836;SDS011;4957;51.412;6.724;2023-07-29T10:16:37;2.13;;;0.80;;
9836;SDS011;4957;51.412;6.724;2023-07-29T10:19:07;1.00;;;1.00;;
9836;SDS011;4957;51.412;6.724;2023-07-29T10:21:33;1.43;;;0.97;;
9836;SDS011;4957;51.412;6.724;2023-07-29T10:24:01;3.30;;;1.07;;
9836;SDS011;4957;51.412;6.724;2023-07-29T10:26:31;0.80;;;0.80;;
9836;SDS011;4957;51.412;6.724;2023-07-29T10:28:59;2.43;;;0.97;;
9836;SDS011;4957;51.412;6.724;2023-07-29T10:31:29;1.50;;;0.90;;
9836;SDS011;4957;51.412;6.724;2023-07-29T10:33:56;1.53;;;1.17;;
9836;SDS011;4957;51.412;6.724;2023-07-29T10:36:22;1.00;;;0.90;;
9836;SDS011;4957;51.412;6.724;2023-07-29T10:38:49;0.93;;;0.90;;
9836;SDS011;4957;51.412;6.724;2023-07-29T10:41:16;1.83;;;0.90;;
9836;SDS011;4957;51.412;6.724;2023-07-29T10:43:43;0.93;;;0.93;;
9836;SDS011;4957;51.412;6.724;2023-07-29T10:46:18;1.50;;;1.00;;
9836;SDS011;4957;51.412;6.724;2023-07-29T10:51:35;2.13;;;1.07;;
9836;SDS011;4957;51.412;6.724;2023-07-29T10:54:03;1.47;;;0.90;;
9836;SDS011;4957;51.412;6.724;2023-07-29T10:56:42;2.13;;;0.90;;
9836;SDS011;4957;51.412;6.724;2023-07-29T11:01:53;1.53;;;1.10;;
9836;SDS011;4957;51.412;6.724;2023-07-29T11:04:25;1.00;;;0.90;;
9836;SDS011;4957;51.412;6.724;2023-07-29T11:17:41;1.23;;;1.13;;
9836;SDS011;4957;51.412;6.724;2023-07-29T11:20:12;1.83;;;1.30;;
9836;SDS011;4957;51.412;6.724;2023-07-29T11:22:38;4.27;;;0.90;;
9836;SDS011;4957;51.412;6.724;2023-07-29T11:25:05;1.10;;;1.00;;
9836;SDS011;4957;51.412;6.724;2023-07-29T11:27:33;0.90;;;0.90;;
9836;SDS011;4957;51.412;6.724;2023-07-29T11:30:00;1.07;;;1.03;;
9836;SDS011;4957;51.412;6.724;2023-07-29T11:32:27;2.17;;;1.10;;
9836;SDS011;4957;51.412;6.724;2023-07-29T11:34:53;2.00;;;0.80;;
9836;SDS011;4957;51.412;6.724;2023-07-29T11:37:18;1.37;;;1.00;;
9836;SDS011;4957;51.412;6.724;2023-07-29T11:39:46;1.47;;;1.10;;
9836;SDS011;4957;51.412;6.724;2023-07-29T11:42:12;2.00;;;1.90;;
9836;SDS011;4957;51.412;6.724;2023-07-29T11:44:38;1.23;;;1.13;;
9836;SDS011;4957;51.412;6.724;2023-07-29T11:47:08;1.43;;;1.00;;
9836;SDS011;4957;51.412;6.724;2023-07-29T11:49:34;2.30;;;1.10;;
9836;SDS011;4957;51.412;6.724;2023-07-29T11:52:02;2.20;;;1.03;;
9836;SDS011;4957;51.412;6.724;2023-07-29T11:54:28;2.53;;;1.10;;
9836;SDS011;4957;51.412;6.724;2023-07-29T11:56:55;1.87;;;1.23;;
9836;SDS011;4957;51.412;6.724;2023-07-29T11:59:21;3.97;;;1.30;;
9836;SDS011;4957;51.412;6.724;2023-07-29T12:01:47;1.90;;;1.37;;
9836;SDS011;4957;51.412;6.724;2023-07-29T12:04:12;1.33;;;1.23;;
9836;SDS011;4957;51.412;6.724;2023-07-29T12:06:39;1.73;;;1.10;;
9836;SDS011;4957;51.412;6.724;2023-07-29T12:09:05;5.83;;;1.70;;
9836;SDS011;4957;51.412;6.724;2023-07-29T12:11:32;2.87;;;1.17;;
9836;SDS011;4957;51.412;6.724;2023-07-29T12:13:59;3.17;;;1.17;;
9836;SDS011;4957;51.412;6.724;2023-07-29T12:16:25;5.47;;;1.80;;
9836;SDS011;4957;51.412;6.724;2023-07-29T12:18:51;1.47;;;1.37;;
9836;SDS011;4957;51.412;6.724;2023-07-29T12:21:17;1.87;;;1.47;;
9836;SDS011;4957;51.412;6.724;2023-07-29T12:23:44;2.60;;;1.07;;
9836;SDS011;4957;51.412;6.724;2023-07-29T12:26:10;1.30;;;1.20;;
9836;SDS011;4957;51.412;6.724;2023-07-29T12:28:35;2.00;;;1.20;;
9836;SDS011;4957;51.412;6.724;2023-07-29T12:31:01;1.83;;;1.20;;
9836;SDS011;4957;51.412;6.724;2023-07-29T12:33:32;2.10;;;1.43;;
9836;SDS011;4957;51.412;6.724;2023-07-29T12:36:04;1.20;;;1.10;;
9836;SDS011;4957;51.412;6.724;2023-07-29T12:38:30;2.50;;;1.20;;
9836;SDS011;4957;51.412;6.724;2023-07-29T12:40:55;3.07;;;0.93;;
9836;SDS011;4957;51.412;6.724;2023-07-29T12:43:21;1.00;;;1.00;;
9836;SDS011;4957;51.412;6.724;2023-07-29T12:45:50;3.63;;;1.30;;
9836;SDS011;4957;51.412;6.724;2023-07-29T12:48:16;4.30;;;1.37;;
9836;SDS011;4957;51.412;6.724;2023-07-29T12:50:42;1.40;;;1.13;;
9836;SDS011;4957;51.412;6.724;2023-07-29T12:53:08;3.87;;;1.30;;
9836;SDS011;4957;51.412;6.724;2023-07-29T12:55:37;1.20;;;1.10;;
9836;SDS011;4957;51.412;6.724;2023-07-29T12:58:03;0.90;;;0.90;;
9836;SDS011;4957;51.412;6.724;2023-07-29T13:00:29;4.90;;;1.40;;
9836;SDS011;4957;51.412;6.724;2023-07-29T13:02:55;1.73;;;1.20;;
9836;SDS011;4957;51.412;6.724;2023-07-29T13:05:21;3.90;;;1.03;;
9836;SDS011;4957;51.412;6.724;2023-07-29T13:07:47;2.10;;;1.70;;
9836;SDS011;4957;51.412;6.724;2023-07-29T13:10:13;1.30;;;1.20;;
9836;SDS011;4957;51.412;6.724;2023-07-29T13:12:39;3.27;;;1.70;;
9836;SDS011;4957;51.412;6.724;2023-07-29T13:15:05;1.47;;;1.37;;
9836;SDS011;4957;51.412;6.724;2023-07-29T13:17:32;3.30;;;2.50;;
9836;SDS011;4957;51.412;6.724;2023-07-29T13:19:58;2.40;;;2.20;;
9836;SDS011;4957;51.412;6.724;2023-07-29T13:22:24;2.43;;;2.23;;
9836;SDS011;4957;51.412;6.724;2023-07-29T13:24:50;5.17;;;3.43;;
9836;SDS011;4957;51.412;6.724;2023-07-29T13:27:15;5.03;;;3.83;;
9836;SDS011;4957;51.412;6.724;2023-07-29T13:29:41;3.03;;;2.50;;
9836;SDS011;4957;51.412;6.724;2023-07-29T13:32:08;3.80;;;1.70;;
9836;SDS011;4957;51.412;6.724;2023-07-29T13:34:34;1.73;;;1.57;;
9836;SDS011;4957;51.412;6.724;2023-07-29T13:37:00;4.27;;;1.67;;
9836;SDS011;4957;51.412;6.724;2023-07-29T13:39:25;5.60;;;2.43;;
9836;SDS011;4957;51.412;6.724;2023-07-29T13:41:52;2.77;;;1.50;;
9836;SDS011;4957;51.412;6.724;2023-07-29T13:44:18;2.33;;;1.87;;
9836;SDS011;4957;51.412;6.724;2023-07-29T13:46:47;6.47;;;1.90;;
9836;SDS011;4957;51.412;6.724;2023-07-29T13:49:13;6.50;;;2.47;;
9836;SDS011;4957;51.412;6.724;2023-07-29T13:51:38;2.23;;;1.77;;
9836;SDS011;4957;51.412;6.724;2023-07-29T13:54:04;4.97;;;2.07;;
9836;SDS011;4957;51.412;6.724;2023-07-29T13:56:29;7.43;;;1.90;;
9836;SDS011;4957;51.412;6.724;2023-07-29T13:58:55;3.60;;;1.97;;
9836;SDS011;4957;51.412;6.724;2023-07-29T14:01:21;5.00;;;2.03;;
9836;SDS011;4957;51.412;6.724;2023-07-29T14:03:46;2.40;;;2.00;;
9836;SDS011;4957;51.412;6.724;2023-07-29T14:06:12;7.73;;;1.50;;
9836;SDS011;4957;51.412;6.724;2023-07-29T14:08:38;1.80;;;1.60;;
9836;SDS011;4957;51.412;6.724;2023-07-29T14:11:05;1.77;;;1.40;;
9836;SDS011;4957;51.412;6.724;2023-07-29T14:13:31;2.70;;;1.40;;
9836;SDS011;4957;51.412;6.724;2023-07-29T14:15:57;2.93;;;1.60;;
9836;SDS011;4957;51.412;6.724;2023-07-29T14:18:24;1.57;;;1.47;;
9836;SDS011;4957;51.412;6.724;2023-07-29T14:20:50;1.50;;;1.40;;
9836;SDS011;4957;51.412;6.724;2023-07-29T14:23:16;4.50;;;1.43;;
9836;SDS011;4957;51.412;6.724;2023-07-29T14:25:42;1.97;;;1.50;;
9836;SDS011;4957;51.412;6.724;2023-07-29T14:28:07;2.00;;;1.73;;
9836;SDS011;4957;51.412;6.724;2023-07-29T14:30:33;2.77;;;1.67;;
9836;SDS011;4957;51.412;6.724;2023-07-29T14:33:00;2.90;;;1.77;;
9836;SDS011;4957;51.412;6.724;2023-07-29T14:35:26;2.80;;;1.50;;
9836;SDS011;4957;51.412;6.724;2023-07-29T14:37:51;1.33;;;1.23;;
9836;SDS011;4957;51.412;6.724;2023-07-29T14:40:17;2.10;;;1.60;;
9836;SDS011;4957;51.412;6.724;2023-07-29T14:42:42;2.33;;;1.60;;
9836;SDS011;4957;51.412;6.724;2023-07-29T14:45:08;7.07;;;1.77;;
9836;SDS011;4957;51.412;6.724;2023-07-29T14:47:34;3.20;;;1.80;;
9836;SDS011;4957;51.412;6.724;2023-07-29T14:50:00;3.40;;;2.03;;
9836;SDS011;4957;51.412;6.724;2023-07-29T14:52:26;1.83;;;1.73;;
9836;SDS011;4957;51.412;6.724;2023-07-29T14:54:52;1.87;;;1.77;;
9836;SDS011;4957;51.412;6.724;2023-07-29T14:57:17;2.10;;;1.90;;
9836;SDS011;4957;51.412;6.724;2023-07-29T14:59:43;3.17;;;2.03;;
9836;SDS011;4957;51.412;6.724;2023-07-29T15:02:08;3.90;;;2.43;;
9836;SDS011;4957;51.412;6.724;2023-07-29T15:04:34;3.77;;;1.97;;
9836;SDS011;4957;51.412;6.724;2023-07-29T15:07:00;4.07;;;2.13;;
9836;SDS011;4957;51.412;6.724;2023-07-29T15:09:27;2.93;;;2.23;;
9836;SDS011;4957;51.412;6.724;2023-07-29T15:11:52;5.87;;;2.40;;
9836;SDS011;4957;51.412;6.724;2023-07-29T15:14:18;2.53;;;2.10;;
9836;SDS011;4957;51.412;6.724;2023-07-29T15:16:44;2.63;;;2.23;;
9836;SDS011;4957;51.412;6.724;2023-07-29T15:19:09;3.00;;;2.43;;
9836;SDS011;4957;51.412;6.724;2023-07-29T15:21:35;2.93;;;2.30;;
9836;SDS011;4957;51.412;6.724;2023-07-29T15:24:01;3.20;;;2.40;;
9836;SDS011;4957;51.412;6.724;2023-07-29T15:26:27;2.60;;;1.80;;
9836;SDS011;4957;51.412;6.724;2023-07-29T15:28:53;1.77;;;1.67;;
9836;SDS011;4957;51.412;6.724;2023-07-29T15:31:18;1.40;;;1.30;;
9836;SDS011;4957;51.412;6.724;2023-07-29T15:33:44;1.97;;;1.33;;